sensor_id;sensor_type;location;lat;lon;timestamp;temperature;humidity
54898;DHT22;40800;52.704;6.398;2023-02-15T00:01:26;1.80;99.90
54898;DHT22;40800;52.704;6.398;2023-02-15T00:03:51;1.80;99.90
54898;DHT22;40800;52.704;6.398;2023-02-15T00:06:18;1.80;99.90
54898;DHT22;40800;52.704;6.398;2023-02-15T00:08:43;1.70;99.90
54898;DHT22;40800;52.704;6.398;2023-02-15T00:11:11;1.70;99.90
54898;DHT22;40800;52.704;6.398;2023-02-15T00:13:37;1.60;99.90
54898;DHT22;40800;52.704;6.398;2023-02-15T00:16:05;1.70;99.90
54898;DHT22;40800;52.704;6.398;2023-02-15T00:18:31;1.70;99.90
54898;DHT22;40800;52.704;6.398;2023-02-15T00:20:57;1.70;99.90
54898;DHT22;40800;52.704;6.398;2023-02-15T00:23:24;1.60;99.90
54898;DHT22;40800;52.704;6.398;2023-02-15T00:25:49;1.70;99.90
54898;DHT22;40800;52.704;6.398;2023-02-15T00:28:15;1.60;99.90
54898;DHT22;40800;52.704;6.398;2023-02-15T00:30:41;1.60;99.90
54898;DHT22;40800;52.704;6.398;2023-02-15T00:33:06;1.60;99.90
54898;DHT22;40800;52.704;6.398;2023-02-15T00:35:32;1.50;99.90
54898;DHT22;40800;52.704;6.398;2023-02-15T00:37:58;1.50;99.90
54898;DHT22;40800;52.704;6.398;2023-02-15T00:40:23;1.50;99.90
54898;DHT22;40800;52.704;6.398;2023-02-15T00:42:49;1.50;99.90
54898;DHT22;40800;52.704;6.398;2023-02-15T00:45:14;1.50;99.90
54898;DHT22;40800;52.704;6.398;2023-02-15T00:47:40;1.40;99.90
54898;DHT22;40800;52.704;6.398;2023-02-15T00:50:06;1.30;99.90
54898;DHT22;40800;52.704;6.398;2023-02-15T00:52:32;1.30;99.90
54898;DHT22;40800;52.704;6.398;2023-02-15T00:54:57;1.20;99.90
54898;DHT22;40800;52.704;6.398;2023-02-15T00:57:23;1.00;99.90
54898;DHT22;40800;52.704;6.398;2023-02-15T00:59:48;0.90;99.90
54898;DHT22;40800;52.704;6.398;2023-02-15T01:02:14;0.80;99.90
54898;DHT22;40800;52.704;6.398;2023-02-15T01:04:40;0.90;99.90
54898;DHT22;40800;52.704;6.398;2023-02-15T01:07:06;0.90;99.90
54898;DHT22;40800;52.704;6.398;2023-02-15T01:09:31;1.00;99.90
54898;DHT22;40800;52.704;6.398;2023-02-15T01:11:57;1.00;99.90
54898;DHT22;40800;52.704;6.398;2023-02-15T01:14:22;1.10;99.90
54898;DHT22;40800;52.704;6.398;2023-02-15T01:16:48;1.10;99.90
54898;DHT22;40800;52.704;6.398;2023-02-15T01:19:13;1.00;99.90
54898;DHT22;40800;52.704;6.398;2023-02-15T01:21:39;1.10;99.90
54898;DHT22;40800;52.704;6.398;2023-02-15T01:24:13;1.20;99.90
54898;DHT22;40800;52.704;6.398;2023-02-15T01:26:39;1.20;99.90
54898;DHT22;40800;52.704;6.398;2023-02-15T01:29:05;1.20;99.90
54898;DHT22;40800;52.704;6.398;2023-02-15T01:31:30;1.10;99.90
54898;DHT22;40800;52.704;6.398;2023-02-15T01:33:56;1.20;99.90
54898;DHT22;40800;52.704;6.398;2023-02-15T01:36:22;1.10;99.90
54898;DHT22;40800;52.704;6.398;2023-02-15T01:38:47;1.00;99.90
54898;DHT22;40800;52.704;6.398;2023-02-15T01:41:14;1.10;99.90
54898;DHT22;40800;52.704;6.398;2023-02-15T01:43:54;1.00;99.90
54898;DHT22;40800;52.704;6.398;2023-02-15T01:46:27;0.80;99.90
54898;DHT22;40800;52.704;6.398;2023-02-15T01:48:59;0.70;99.90
54898;DHT22;40800;52.704;6.398;2023-02-15T01:51:27;0.60;99.90
54898;DHT22;40800;52.704;6.398;2023-02-15T01:53:59;0.60;99.90
54898;DHT22;40800;52.704;6.398;2023-02-15T01:56:30;0.60;99.90
54898;DHT22;40800;52.704;6.398;2023-02-15T01:58:59;0.60;99.90
54898;DHT22;40800;52.704;6.398;2023-02-15T02:01:28;0.80;99.90
54898;DHT22;40800;52.704;6.398;2023-02-15T02:04:05;0.80;99.90
54898;DHT22;40800;52.704;6.398;2023-02-15T02:06:35;0.90;99.90
54898;DHT22;40800;52.704;6.398;2023-02-15T02:09:02;0.90;99.90
54898;DHT22;40800;52.704;6.398;2023-02-15T02:11:28;0.80;99.90
54898;DHT22;40800;52.704;6.398;2023-02-15T02:13:55;0.60;99.90
54898;DHT22;40800;52.704;6.398;2023-02-15T02:16:25;0.20;99.90
54898;DHT22;40800;52.704;6.398;2023-02-15T02:24:43;-0.10;99.90
54898;DHT22;40800;52.704;6.398;2023-02-15T02:30:45;-0.10;99.90
54898;DHT22;40800;52.704;6.398;2023-02-15T02:36:19;0.10;99.90
54898;DHT22;40800;52.704;6.398;2023-02-15T02:38:57;0.20;99.90
54898;DHT22;40800;52.704;6.398;2023-02-15T02:41:40;0.20;99.90
54898;DHT22;40800;52.704;6.398;2023-02-15T02:44:17;0.30;99.90
54898;DHT22;40800;52.704;6.398;2023-02-15T02:49:15;0.50;99.90
54898;DHT22;40800;52.704;6.398;2023-02-15T02:51:41;0.40;99.90
54898;DHT22;40800;52.704;6.398;2023-02-15T02:54:07;0.50;99.90
54898;DHT22;40800;52.704;6.398;2023-02-15T02:56:39;0.50;99.90
54898;DHT22;40800;52.704;6.398;2023-02-15T02:59:15;0.50;99.90
54898;DHT22;40800;52.704;6.398;2023-02-15T03:04:29;0.50;99.90
54898;DHT22;40800;52.704;6.398;2023-02-15T03:07:02;0.50;99.90
54898;DHT22;40800;52.704;6.398;2023-02-15T03:12:11;0.50;99.90
54898;DHT22;40800;52.704;6.398;2023-02-15T03:14:39;0.50;99.90
54898;DHT22;40800;52.704;6.398;2023-02-15T03:17:08;0.50;99.90
54898;DHT22;40800;52.704;6.398;2023-02-15T03:19:35;0.60;99.90
54898;DHT22;40800;52.704;6.398;2023-02-15T03:22:13;0.50;99.90
54898;DHT22;40800;52.704;6.398;2023-02-15T03:24:44;0.50;99.90
54898;DHT22;40800;52.704;6.398;2023-02-15T03:27:17;0.50;99.90
54898;DHT22;40800;52.704;6.398;2023-02-15T03:29:53;0.60;99.90
54898;DHT22;40800;52.704;6.398;2023-02-15T03:32:20;0.50;99.90
54898;DHT22;40800;52.704;6.398;2023-02-15T03:34:46;0.50;99.90
54898;DHT22;40800;52.704;6.398;2023-02-15T03:37:20;0.40;99.90
54898;DHT22;40800;52.704;6.398;2023-02-15T03:40:07;0.40;99.90
54898;DHT22;40800;52.704;6.398;2023-02-15T03:42:59;0.40;99.90
54898;DHT22;40800;52.704;6.398;2023-02-15T03:45:29;0.40;99.90
54898;DHT22;40800;52.704;6.398;2023-02-15T03:47:57;0.30;99.90
54898;DHT22;40800;52.704;6.398;2023-02-15T03:50:30;0.30;99.90
54898;DHT22;40800;52.704;6.398;2023-02-15T03:53:18;0.40;99.90
54898;DHT22;40800;52.704;6.398;2023-02-15T03:55:50;0.30;99.90
54898;DHT22;40800;52.704;6.398;2023-02-15T03:58:18;0.30;99.90
54898;DHT22;40800;52.704;6.398;2023-02-15T04:01:09;0.30;99.90
54898;DHT22;40800;52.704;6.398;2023-02-15T04:03:59;0.20;99.90
54898;DHT22;40800;52.704;6.398;2023-02-15T04:06:26;0.20;99.90
54898;DHT22;40800;52.704;6.398;2023-02-15T04:08:52;0.20;99.90
54898;DHT22;40800;52.704;6.398;2023-02-15T04:11:36;0.20;99.90
54898;DHT22;40800;52.704;6.398;2023-02-15T04:14:02;0.10;99.90
54898;DHT22;40800;52.704;6.398;2023-02-15T04:16:47;0.20;99.90
54898;DHT22;40800;52.704;6.398;2023-02-15T04:19:13;0.10;99.90
54898;DHT22;40800;52.704;6.398;2023-02-15T04:21:57;0.10;99.90
54898;DHT22;40800;52.704;6.398;2023-02-15T04:24:41;-0.10;99.90
54898;DHT22;40800;52.704;6.398;2023-02-15T04:27:25;-0.30;99.90
54898;DHT22;40800;52.704;6.398;2023-02-15T04:29:51;-0.30;99.90
54898;DHT22;40800;52.704;6.398;2023-02-15T04:32:16;-0.30;99.90
54898;DHT22;40800;52.704;6.398;2023-02-15T04:34:42;-0.20;99.90
54898;DHT22;40800;52.704;6.398;2023-02-15T04:37:07;-0.20;99.90
54898;DHT22;40800;52.704;6.398;2023-02-15T04:39:33;-0.10;99.90
54898;DHT22;40800;52.704;6.398;2023-02-15T04:41:58;-0.10;99.90
54898;DHT22;40800;52.704;6.398;2023-02-15T04:44:24;-0.10;99.90
54898;DHT22;40800;52.704;6.398;2023-02-15T04:46:50;-0.10;99.90
54898;DHT22;40800;52.704;6.398;2023-02-15T04:49:15;-0.10;99.90
54898;DHT22;40800;52.704;6.398;2023-02-15T04:51:41;-0.10;99.90
54898;DHT22;40800;52.704;6.398;2023-02-15T04:54:06;-0.10;99.90
54898;DHT22;40800;52.704;6.398;2023-02-15T04:56:32;-0.10;99.90
54898;DHT22;40800;52.704;6.398;2023-02-15T04:59:00;-0.10;99.90
54898;DHT22;40800;52.704;6.398;2023-02-15T05:01:25;-0.10;99.90
54898;DHT22;40800;52.704;6.398;2023-02-15T05:03:51;-0.10;99.90
54898;DHT22;40800;52.704;6.398;2023-02-15T05:06:17;-0.10;99.90
54898;DHT22;40800;52.704;6.398;2023-02-15T05:08:42;-0.10;99.90
54898;DHT22;40800;52.704;6.398;2023-02-15T05:11:08;0.00;99.90
54898;DHT22;40800;52.704;6.398;2023-02-15T05:13:33;0.00;99.90
54898;DHT22;40800;52.704;6.398;2023-02-15T05:15:59;-0.10;99.90
54898;DHT22;40800;52.704;6.398;2023-02-15T05:18:25;-0.10;99.90
54898;DHT22;40800;52.704;6.398;2023-02-15T05:20:50;-0.10;99.90
54898;DHT22;40800;52.704;6.398;2023-02-15T05:23:16;-0.50;99.90
54898;DHT22;40800;52.704;6.398;2023-02-15T05:25:47;-0.50;99.90
54898;DHT22;40800;52.704;6.398;2023-02-15T05:28:31;-0.50;99.90
54898;DHT22;40800;52.704;6.398;2023-02-15T05:31:12;-0.40;99.90
54898;DHT22;40800;52.704;6.398;2023-02-15T05:33:38;-0.30;99.90
54898;DHT22;40800;52.704;6.398;2023-02-15T05:36:05;-0.20;99.90
54898;DHT22;40800;52.704;6.398;2023-02-15T05:38:31;-0.20;99.90
54898;DHT22;40800;52.704;6.398;2023-02-15T05:40:56;-0.10;99.90
54898;DHT22;40800;52.704;6.398;2023-02-15T05:43:23;-0.10;99.90
54898;DHT22;40800;52.704;6.398;2023-02-15T05:45:50;0.50;99.90
54898;DHT22;40800;52.704;6.398;2023-02-15T05:48:16;0.00;99.90
54898;DHT22;40800;52.704;6.398;2023-02-15T05:50:43;-0.20;99.90
54898;DHT22;40800;52.704;6.398;2023-02-15T05:53:08;-0.10;99.90
54898;DHT22;40800;52.704;6.398;2023-02-15T05:55:36;-0.10;99.90
54898;DHT22;40800;52.704;6.398;2023-02-15T05:58:02;-0.10;99.90
54898;DHT22;40800;52.704;6.398;2023-02-15T06:00:27;-0.10;99.90
54898;DHT22;40800;52.704;6.398;2023-02-15T06:02:53;-0.10;99.90
54898;DHT22;40800;52.704;6.398;2023-02-15T06:05:19;-0.10;99.90
54898;DHT22;40800;52.704;6.398;2023-02-15T06:07:44;-0.10;99.90
54898;DHT22;40800;52.704;6.398;2023-02-15T06:10:11;-0.20;99.90
54898;DHT22;40800;52.704;6.398;2023-02-15T06:12:36;-0.10;99.90
54898;DHT22;40800;52.704;6.398;2023-02-15T06:15:03;-0.10;99.90
54898;DHT22;40800;52.704;6.398;2023-02-15T06:17:28;-0.10;99.90
54898;DHT22;40800;52.704;6.398;2023-02-15T06:19:54;-0.10;99.90
54898;DHT22;40800;52.704;6.398;2023-02-15T06:22:20;-0.10;99.90
54898;DHT22;40800;52.704;6.398;2023-02-15T06:24:46;-0.10;99.90
54898;DHT22;40800;52.704;6.398;2023-02-15T06:27:12;-0.10;99.90
54898;DHT22;40800;52.704;6.398;2023-02-15T06:29:37;-0.10;99.90
54898;DHT22;40800;52.704;6.398;2023-02-15T06:32:03;-0.10;99.90
54898;DHT22;40800;52.704;6.398;2023-02-15T06:34:30;-0.10;99.90
54898;DHT22;40800;52.704;6.398;2023-02-15T06:36:55;-0.10;99.90
54898;DHT22;40800;52.704;6.398;2023-02-15T06:39:21;-0.10;99.90
54898;DHT22;40800;52.704;6.398;2023-02-15T06:41:47;0.00;99.90
54898;DHT22;40800;52.704;6.398;2023-02-15T06:44:13;0.00;99.90
54898;DHT22;40800;52.704;6.398;2023-02-15T06:46:38;0.00;99.90
54898;DHT22;40800;52.704;6.398;2023-02-15T06:49:04;0.10;99.90
54898;DHT22;40800;52.704;6.398;2023-02-15T06:51:30;0.10;99.90
54898;DHT22;40800;52.704;6.398;2023-02-15T06:53:55;0.10;99.90
54898;DHT22;40800;52.704;6.398;2023-02-15T06:56:21;0.20;99.90
54898;DHT22;40800;52.704;6.398;2023-02-15T06:58:46;0.20;99.90
54898;DHT22;40800;52.704;6.398;2023-02-15T07:01:14;0.30;99.90
54898;DHT22;40800;52.704;6.398;2023-02-15T07:03:40;0.20;99.90
54898;DHT22;40800;52.704;6.398;2023-02-15T07:06:06;0.30;99.90
54898;DHT22;40800;52.704;6.398;2023-02-15T07:08:34;0.30;99.90
54898;DHT22;40800;52.704;6.398;2023-02-15T07:11:01;0.30;99.90
54898;DHT22;40800;52.704;6.398;2023-02-15T07:13:46;0.20;99.90
54898;DHT22;40800;52.704;6.398;2023-02-15T07:16:12;0.10;99.90
54898;DHT22;40800;52.704;6.398;2023-02-15T07:18:38;0.10;99.90
54898;DHT22;40800;52.704;6.398;2023-02-15T07:21:04;0.10;99.90
54898;DHT22;40800;52.704;6.398;2023-02-15T07:23:36;0.10;99.90
54898;DHT22;40800;52.704;6.398;2023-02-15T07:26:03;0.20;99.90
54898;DHT22;40800;52.704;6.398;2023-02-15T07:28:29;0.30;99.90
54898;DHT22;40800;52.704;6.398;2023-02-15T07:30:55;0.30;99.90
54898;DHT22;40800;52.704;6.398;2023-02-15T07:33:20;0.40;99.90
54898;DHT22;40800;52.704;6.398;2023-02-15T07:35:50;0.50;99.90
54898;DHT22;40800;52.704;6.398;2023-02-15T07:38:17;0.50;99.90
54898;DHT22;40800;52.704;6.398;2023-02-15T07:40:43;0.60;99.90
54898;DHT22;40800;52.704;6.398;2023-02-15T07:43:09;0.60;99.90
54898;DHT22;40800;52.704;6.398;2023-02-15T07:45:35;0.60;99.90
54898;DHT22;40800;52.704;6.398;2023-02-15T07:48:01;0.70;99.90
54898;DHT22;40800;52.704;6.398;2023-02-15T07:50:28;0.80;99.90
54898;DHT22;40800;52.704;6.398;2023-02-15T07:52:53;0.90;99.90
54898;DHT22;40800;52.704;6.398;2023-02-15T07:55:19;0.90;99.90
54898;DHT22;40800;52.704;6.398;2023-02-15T07:57:46;1.00;99.90
54898;DHT22;40800;52.704;6.398;2023-02-15T08:00:14;1.20;99.90
54898;DHT22;40800;52.704;6.398;2023-02-15T08:02:40;1.20;99.90
54898;DHT22;40800;52.704;6.398;2023-02-15T08:05:07;1.20;99.90
54898;DHT22;40800;52.704;6.398;2023-02-15T08:07:32;1.20;99.90
54898;DHT22;40800;52.704;6.398;2023-02-15T08:09:58;1.30;99.90
54898;DHT22;40800;52.704;6.398;2023-02-15T08:12:26;1.50;99.90
54898;DHT22;40800;52.704;6.398;2023-02-15T08:14:52;1.60;99.90
54898;DHT22;40800;52.704;6.398;2023-02-15T08:17:18;1.70;99.90
54898;DHT22;40800;52.704;6.398;2023-02-15T08:19:43;1.60;99.90
54898;DHT22;40800;52.704;6.398;2023-02-15T08:22:12;1.70;99.90
54898;DHT22;40800;52.704;6.398;2023-02-15T08:24:38;1.80;99.90
54898;DHT22;40800;52.704;6.398;2023-02-15T08:27:05;1.90;99.90
54898;DHT22;40800;52.704;6.398;2023-02-15T08:29:32;1.90;99.90
54898;DHT22;40800;52.704;6.398;2023-02-15T08:32:01;2.10;99.90
54898;DHT22;40800;52.704;6.398;2023-02-15T08:34:29;2.10;99.90
54898;DHT22;40800;52.704;6.398;2023-02-15T08:36:55;2.20;99.90
54898;DHT22;40800;52.704;6.398;2023-02-15T08:39:21;2.30;99.90
54898;DHT22;40800;52.704;6.398;2023-02-15T08:41:48;2.20;99.90
54898;DHT22;40800;52.704;6.398;2023-02-15T08:44:16;2.30;99.90
54898;DHT22;40800;52.704;6.398;2023-02-15T08:46:43;2.60;99.90
54898;DHT22;40800;52.704;6.398;2023-02-15T08:49:14;2.70;99.90
54898;DHT22;40800;52.704;6.398;2023-02-15T08:51:41;2.70;99.90
54898;DHT22;40800;52.704;6.398;2023-02-15T08:54:09;2.90;99.90
54898;DHT22;40800;52.704;6.398;2023-02-15T08:56:38;3.00;99.90
54898;DHT22;40800;52.704;6.398;2023-02-15T08:59:05;3.10;99.90
54898;DHT22;40800;52.704;6.398;2023-02-15T09:01:32;3.20;99.90
54898;DHT22;40800;52.704;6.398;2023-02-15T09:04:02;3.30;99.90
54898;DHT22;40800;52.704;6.398;2023-02-15T09:06:29;3.30;99.90
54898;DHT22;40800;52.704;6.398;2023-02-15T09:08:55;3.30;99.90
54898;DHT22;40800;52.704;6.398;2023-02-15T09:11:30;3.50;99.90
54898;DHT22;40800;52.704;6.398;2023-02-15T09:13:58;3.60;99.90
54898;DHT22;40800;52.704;6.398;2023-02-15T09:16:26;3.90;99.90
54898;DHT22;40800;52.704;6.398;2023-02-15T09:18:52;3.80;99.90
54898;DHT22;40800;52.704;6.398;2023-02-15T09:21:21;4.00;99.90
54898;DHT22;40800;52.704;6.398;2023-02-15T09:23:49;4.00;99.90
54898;DHT22;40800;52.704;6.398;2023-02-15T09:26:19;4.00;99.90
54898;DHT22;40800;52.704;6.398;2023-02-15T09:28:47;4.30;99.90
54898;DHT22;40800;52.704;6.398;2023-02-15T09:31:18;4.30;99.90
54898;DHT22;40800;52.704;6.398;2023-02-15T09:33:45;4.50;99.90
54898;DHT22;40800;52.704;6.398;2023-02-15T09:36:20;4.70;99.90
54898;DHT22;40800;52.704;6.398;2023-02-15T09:38:48;4.90;99.90
54898;DHT22;40800;52.704;6.398;2023-02-15T09:52:25;5.70;99.90
54898;DHT22;40800;52.704;6.398;2023-02-15T09:55:12;5.90;99.90
54898;DHT22;40800;52.704;6.398;2023-02-15T10:00:21;6.10;99.90
54898;DHT22;40800;52.704;6.398;2023-02-15T10:03:09;6.10;99.90
54898;DHT22;40800;52.704;6.398;2023-02-15T10:17:14;6.70;99.90
54898;DHT22;40800;52.704;6.398;2023-02-15T10:27:47;7.30;99.90
54898;DHT22;40800;52.704;6.398;2023-02-15T10:30:54;7.40;99.90
54898;DHT22;40800;52.704;6.398;2023-02-15T10:38:44;8.20;99.90
54898;DHT22;40800;52.704;6.398;2023-02-15T10:44:05;8.40;99.90
54898;DHT22;40800;52.704;6.398;2023-02-15T10:49:23;8.40;99.90
54898;DHT22;40800;52.704;6.398;2023-02-15T10:55:08;8.60;99.90
54898;DHT22;40800;52.704;6.398;2023-02-15T11:08:23;9.20;99.90
54898;DHT22;40800;52.704;6.398;2023-02-15T11:11:02;9.20;99.90
54898;DHT22;40800;52.704;6.398;2023-02-15T11:13:34;9.40;99.90
54898;DHT22;40800;52.704;6.398;2023-02-15T11:16:08;9.60;99.90
54898;DHT22;40800;52.704;6.398;2023-02-15T11:19:28;9.80;99.90
54898;DHT22;40800;52.704;6.398;2023-02-15T11:21:37;9.90;99.90
54898;DHT22;40800;52.704;6.398;2023-02-15T11:24:17;10.10;99.90
54898;DHT22;40800;52.704;6.398;2023-02-15T11:26:54;10.40;99.90
54898;DHT22;40800;52.704;6.398;2023-02-15T11:32:24;10.20;99.90
54898;DHT22;40800;52.704;6.398;2023-02-15T11:34:55;10.20;99.90
54898;DHT22;40800;52.704;6.398;2023-02-15T11:37:27;10.30;99.90
54898;DHT22;40800;52.704;6.398;2023-02-15T11:39:54;10.40;99.90
54898;DHT22;40800;52.704;6.398;2023-02-15T11:42:22;10.70;99.90
54898;DHT22;40800;52.704;6.398;2023-02-15T11:45:21;10.80;99.90
54898;DHT22;40800;52.704;6.398;2023-02-15T11:47:48;10.90;99.90
54898;DHT22;40800;52.704;6.398;2023-02-15T11:50:22;11.00;99.90
54898;DHT22;40800;52.704;6.398;2023-02-15T11:52:52;11.20;99.90
54898;DHT22;40800;52.704;6.398;2023-02-15T11:55:22;11.50;99.90
54898;DHT22;40800;52.704;6.398;2023-02-15T11:58:02;11.20;99.90
54898;DHT22;40800;52.704;6.398;2023-02-15T12:00:48;11.30;99.90
54898;DHT22;40800;52.704;6.398;2023-02-15T12:03:41;11.50;99.90
54898;DHT22;40800;52.704;6.398;2023-02-15T12:06:15;11.80;99.90
54898;DHT22;40800;52.704;6.398;2023-02-15T12:08:46;12.20;99.90
54898;DHT22;40800;52.704;6.398;2023-02-15T12:11:20;12.20;99.90
54898;DHT22;40800;52.704;6.398;2023-02-15T12:13:59;12.10;99.90
54898;DHT22;40800;52.704;6.398;2023-02-15T12:16:26;12.10;99.90
54898;DHT22;40800;52.704;6.398;2023-02-15T12:18:55;12.30;99.90
54898;DHT22;40800;52.704;6.398;2023-02-15T12:21:41;12.40;99.90
54898;DHT22;40800;52.704;6.398;2023-02-15T12:24:26;12.40;99.90
54898;DHT22;40800;52.704;6.398;2023-02-15T12:27:05;12.60;99.90
54898;DHT22;40800;52.704;6.398;2023-02-15T12:29:39;12.60;99.90
54898;DHT22;40800;52.704;6.398;2023-02-15T12:32:08;12.20;99.90
54898;DHT22;40800;52.704;6.398;2023-02-15T12:34:38;11.80;99.90
54898;DHT22;40800;52.704;6.398;2023-02-15T12:37:32;11.90;99.90
54898;DHT22;40800;52.704;6.398;2023-02-15T12:40:10;12.40;99.90
54898;DHT22;40800;52.704;6.398;2023-02-15T12:42:44;12.50;99.90
54898;DHT22;40800;52.704;6.398;2023-02-15T12:45:30;12.50;99.90
54898;DHT22;40800;52.704;6.398;2023-02-15T12:50:38;12.40;99.90
54898;DHT22;40800;52.704;6.398;2023-02-15T12:53:15;12.50;99.90
54898;DHT22;40800;52.704;6.398;2023-02-15T12:56:20;12.60;99.90
54898;DHT22;40800;52.704;6.398;2023-02-15T12:59:04;12.80;99.90
54898;DHT22;40800;52.704;6.398;2023-02-15T13:01:32;12.80;99.90
54898;DHT22;40800;52.704;6.398;2023-02-15T13:04:01;12.90;99.90
54898;DHT22;40800;52.704;6.398;2023-02-15T13:06:31;12.80;99.90
54898;DHT22;40800;52.704;6.398;2023-02-15T13:09:05;12.80;99.90
54898;DHT22;40800;52.704;6.398;2023-02-15T13:11:31;13.00;99.90
54898;DHT22;40800;52.704;6.398;2023-02-15T13:16:47;13.20;99.90
54898;DHT22;40800;52.704;6.398;2023-02-15T13:21:57;13.50;99.90
54898;DHT22;40800;52.704;6.398;2023-02-15T13:27:22;13.60;99.90
54898;DHT22;40800;52.704;6.398;2023-02-15T13:29:52;13.50;99.90
54898;DHT22;40800;52.704;6.398;2023-02-15T13:32:37;13.30;99.90
54898;DHT22;40800;52.704;6.398;2023-02-15T13:35:05;13.10;99.90
54898;DHT22;40800;52.704;6.398;2023-02-15T13:40:55;13.30;99.90
54898;DHT22;40800;52.704;6.398;2023-02-15T14:08:17;14.90;99.90
54898;DHT22;40800;52.704;6.398;2023-02-15T14:10:51;14.90;99.90
54898;DHT22;40800;52.704;6.398;2023-02-15T14:16:33;14.00;99.90
54898;DHT22;40800;52.704;6.398;2023-02-15T14:24:28;13.00;99.90
54898;DHT22;40800;52.704;6.398;2023-02-15T14:29:57;12.60;99.90
54898;DHT22;40800;52.704;6.398;2023-02-15T14:32:34;12.60;99.90
54898;DHT22;40800;52.704;6.398;2023-02-15T14:35:13;12.60;99.90
54898;DHT22;40800;52.704;6.398;2023-02-15T14:37:47;12.60;99.90
54898;DHT22;40800;52.704;6.398;2023-02-15T14:46:00;12.80;99.90
54898;DHT22;40800;52.704;6.398;2023-02-15T14:48:32;12.60;99.90
54898;DHT22;40800;52.704;6.398;2023-02-15T14:50:59;12.70;99.90
54898;DHT22;40800;52.704;6.398;2023-02-15T14:56:19;12.50;99.90
54898;DHT22;40800;52.704;6.398;2023-02-15T15:01:31;12.20;99.90
54898;DHT22;40800;52.704;6.398;2023-02-15T15:04:11;12.10;99.90
54898;DHT22;40800;52.704;6.398;2023-02-15T15:06:41;12.00;99.90
54898;DHT22;40800;52.704;6.398;2023-02-15T15:09:18;11.90;99.90
54898;DHT22;40800;52.704;6.398;2023-02-15T15:11:50;11.90;99.90
54898;DHT22;40800;52.704;6.398;2023-02-15T15:17:01;11.80;99.90
54898;DHT22;40800;52.704;6.398;2023-02-15T15:33:07;11.40;99.90
54898;DHT22;40800;52.704;6.398;2023-02-15T15:39:20;11.10;99.90
54898;DHT22;40800;52.704;6.398;2023-02-15T15:50:18;10.80;99.90
54898;DHT22;40800;52.704;6.398;2023-02-15T15:52:49;10.70;99.90
54898;DHT22;40800;52.704;6.398;2023-02-15T15:55:20;10.50;99.90
54898;DHT22;40800;52.704;6.398;2023-02-15T15:57:51;10.50;99.90
54898;DHT22;40800;52.704;6.398;2023-02-15T16:00:41;10.40;99.90
54898;DHT22;40800;52.704;6.398;2023-02-15T16:03:21;10.40;99.90
54898;DHT22;40800;52.704;6.398;2023-02-15T16:05:47;10.20;99.90
54898;DHT22;40800;52.704;6.398;2023-02-15T16:08:30;10.10;99.90
54898;DHT22;40800;52.704;6.398;2023-02-15T16:10:57;10.00;99.90
54898;DHT22;40800;52.704;6.398;2023-02-15T16:13:23;9.90;99.90
54898;DHT22;40800;52.704;6.398;2023-02-15T16:15:54;9.90;99.90
54898;DHT22;40800;52.704;6.398;2023-02-15T16:18:25;9.70;99.90
54898;DHT22;40800;52.704;6.398;2023-02-15T16:21:00;9.60;99.90
54898;DHT22;40800;52.704;6.398;2023-02-15T16:28:53;9.30;99.90
54898;DHT22;40800;52.704;6.398;2023-02-15T16:31:20;9.30;99.90
54898;DHT22;40800;52.704;6.398;2023-02-15T16:33:51;9.30;99.90
54898;DHT22;40800;52.704;6.398;2023-02-15T16:41:13;9.20;99.90
54898;DHT22;40800;52.704;6.398;2023-02-15T16:43:41;9.10;99.90
54898;DHT22;40800;52.704;6.398;2023-02-15T16:46:12;9.00;99.90
54898;DHT22;40800;52.704;6.398;2023-02-15T16:48:42;9.00;99.90
54898;DHT22;40800;52.704;6.398;2023-02-15T16:51:09;8.80;99.90
54898;DHT22;40800;52.704;6.398;2023-02-15T16:53:36;8.80;99.90
54898;DHT22;40800;52.704;6.398;2023-02-15T16:56:02;8.70;99.90
54898;DHT22;40800;52.704;6.398;2023-02-15T16:58:41;8.60;99.90
54898;DHT22;40800;52.704;6.398;2023-02-15T17:01:09;8.60;99.90
54898;DHT22;40800;52.704;6.398;2023-02-15T17:03:36;8.50;99.90
54898;DHT22;40800;52.704;6.398;2023-02-15T17:06:03;8.50;99.90
54898;DHT22;40800;52.704;6.398;2023-02-15T17:14:11;8.40;99.90
54898;DHT22;40800;52.704;6.398;2023-02-15T17:17:00;8.30;99.90
54898;DHT22;40800;52.704;6.398;2023-02-15T17:19:31;8.30;99.90
54898;DHT22;40800;52.704;6.398;2023-02-15T17:22:03;8.20;99.90
54898;DHT22;40800;52.704;6.398;2023-02-15T17:24:44;8.20;99.90
54898;DHT22;40800;52.704;6.398;2023-02-15T17:27:23;9.00;99.90
54898;DHT22;40800;52.704;6.398;2023-02-15T17:30:00;8.10;99.90
54898;DHT22;40800;52.704;6.398;2023-02-15T17:32:30;8.00;99.90
54898;DHT22;40800;52.704;6.398;2023-02-15T17:37:31;7.80;99.90
54898;DHT22;40800;52.704;6.398;2023-02-15T17:42:48;7.70;99.90
54898;DHT22;40800;52.704;6.398;2023-02-15T17:45:14;7.60;99.90
54898;DHT22;40800;52.704;6.398;2023-02-15T17:47:41;7.60;99.90
54898;DHT22;40800;52.704;6.398;2023-02-15T17:50:07;7.60;99.90
54898;DHT22;40800;52.704;6.398;2023-02-15T17:52:35;7.50;99.90
54898;DHT22;40800;52.704;6.398;2023-02-15T17:55:12;7.50;99.90
54898;DHT22;40800;52.704;6.398;2023-02-15T17:57:56;7.40;99.90
54898;DHT22;40800;52.704;6.398;2023-02-15T18:00:22;7.40;99.90
54898;DHT22;40800;52.704;6.398;2023-02-15T18:03:09;7.30;99.90
54898;DHT22;40800;52.704;6.398;2023-02-15T18:05:54;7.30;99.90
54898;DHT22;40800;52.704;6.398;2023-02-15T18:08:39;7.30;99.90
54898;DHT22;40800;52.704;6.398;2023-02-15T18:11:23;7.30;99.90
54898;DHT22;40800;52.704;6.398;2023-02-15T18:14:09;7.30;99.90
54898;DHT22;40800;52.704;6.398;2023-02-15T18:16:37;7.20;99.90
54898;DHT22;40800;52.704;6.398;2023-02-15T18:19:04;7.20;99.90
54898;DHT22;40800;52.704;6.398;2023-02-15T18:21:31;7.10;99.90
54898;DHT22;40800;52.704;6.398;2023-02-15T18:23:57;7.10;99.90
54898;DHT22;40800;52.704;6.398;2023-02-15T18:26:24;7.00;99.90
54898;DHT22;40800;52.704;6.398;2023-02-15T18:28:50;7.00;99.90
54898;DHT22;40800;52.704;6.398;2023-02-15T18:31:18;6.80;99.90
54898;DHT22;40800;52.704;6.398;2023-02-15T18:33:54;6.80;99.90
54898;DHT22;40800;52.704;6.398;2023-02-15T18:36:29;6.70;99.90
54898;DHT22;40800;52.704;6.398;2023-02-15T18:38:57;6.70;99.90
54898;DHT22;40800;52.704;6.398;2023-02-15T18:41:24;6.70;99.90
54898;DHT22;40800;52.704;6.398;2023-02-15T18:43:50;6.70;99.90
54898;DHT22;40800;52.704;6.398;2023-02-15T18:46:17;6.60;99.90
54898;DHT22;40800;52.704;6.398;2023-02-15T18:48:43;6.60;99.90
54898;DHT22;40800;52.704;6.398;2023-02-15T18:51:15;6.60;99.90
54898;DHT22;40800;52.704;6.398;2023-02-15T18:53:42;6.60;99.90
54898;DHT22;40800;52.704;6.398;2023-02-15T18:56:13;6.50;99.90
54898;DHT22;40800;52.704;6.398;2023-02-15T18:58:39;6.50;99.90
54898;DHT22;40800;52.704;6.398;2023-02-15T19:01:14;6.50;99.90
54898;DHT22;40800;52.704;6.398;2023-02-15T19:03:48;6.50;99.90
54898;DHT22;40800;52.704;6.398;2023-02-15T19:06:18;6.50;99.90
54898;DHT22;40800;52.704;6.398;2023-02-15T19:08:45;6.50;99.90
54898;DHT22;40800;52.704;6.398;2023-02-15T19:11:22;6.40;99.90
54898;DHT22;40800;52.704;6.398;2023-02-15T19:13:50;6.40;99.90